createdAt,value
2019-04-07T00:00:48.886Z,17.83
2019-04-07T00:02:23.549Z,17.40
2019-04-07T00:03:58.597Z,19.17
2019-04-07T00:05:33.413Z,20.20
2019-04-07T00:07:08.340Z,19.87
2019-04-07T00:08:43.289Z,18.10
2019-04-07T00:10:18.099Z,18.80
2019-04-07T00:11:53.504Z,17.67
2019-04-07T00:13:28.251Z,18.10
2019-04-07T00:15:02.906Z,16.80
2019-04-07T00:16:39.097Z,18.00
2019-04-07T00:18:14.184Z,17.10
2019-04-07T00:19:48.835Z,19.60
2019-04-07T00:21:24.084Z,18.00
2019-04-07T00:22:58.780Z,16.93
2019-04-07T00:24:33.421Z,17.93
2019-04-07T00:26:08.186Z,16.77
2019-04-07T00:27:43.084Z,20.10
2019-04-07T00:29:18.305Z,17.47
2019-04-07T00:30:53.013Z,18.53
2019-04-07T00:32:27.685Z,16.87
2019-04-07T00:34:02.809Z,20.50
2019-04-07T00:35:38.072Z,18.43
2019-04-07T00:37:12.888Z,18.73
2019-04-07T00:38:48.275Z,19.00
2019-04-07T00:40:24.026Z,20.47
2019-04-07T00:41:59.219Z,17.13
2019-04-07T00:43:34.210Z,16.47
2019-04-07T00:45:09.742Z,20.23
2019-04-07T00:46:44.536Z,21.27
2019-04-07T00:48:19.504Z,18.40
2019-04-07T00:49:54.217Z,21.00
2019-04-07T00:51:28.959Z,18.43
2019-04-07T00:53:03.704Z,19.27
2019-04-07T00:54:38.399Z,19.73
2019-04-07T00:56:13.214Z,19.40
2019-04-07T00:57:48.276Z,18.83
2019-04-07T00:59:23.275Z,19.37
2019-04-07T01:00:58.819Z,22.83
2019-04-07T01:02:33.515Z,18.97
2019-04-07T01:04:08.742Z,20.23
2019-04-07T01:05:43.694Z,17.67
2019-04-07T01:07:18.968Z,19.97
2019-04-07T01:08:53.852Z,19.37
2019-04-07T01:10:28.491Z,18.80
2019-04-07T01:12:04.008Z,19.30
2019-04-07T01:13:38.780Z,18.93
2019-04-07T01:15:14.045Z,19.03
2019-04-07T01:16:48.827Z,21.07
2019-04-07T01:18:25.820Z,18.93
2019-04-07T01:19:59.823Z,19.80
2019-04-07T01:21:34.627Z,20.30
2019-04-07T01:23:09.382Z,18.87
2019-04-07T01:24:44.128Z,20.87
2019-04-07T01:26:18.969Z,20.20
2019-04-07T01:27:53.621Z,22.37
2019-04-07T01:29:28.294Z,19.13
2019-04-07T01:31:03.388Z,20.07
2019-04-07T01:32:38.057Z,20.17
2019-04-07T01:34:13.460Z,19.40
2019-04-07T01:35:50.286Z,21.87
2019-04-07T01:37:25.269Z,21.83
2019-04-07T01:39:00.050Z,19.77
2019-04-07T01:40:35.198Z,21.17
2019-04-07T01:42:24.671Z,19.87
2019-04-07T01:44:11.394Z,18.67
2019-04-07T01:46:05.266Z,20.90
2019-04-07T01:47:49.599Z,22.33
2019-04-07T01:49:38.082Z,20.30
2019-04-07T01:51:30.361Z,17.77
2019-04-07T01:53:27.981Z,22.37
2019-04-07T01:55:27.750Z,20.53
2019-04-07T01:57:26.424Z,19.90
2019-04-07T01:59:11.065Z,21.50
2019-04-07T02:01:04.483Z,20.10
2019-04-07T02:02:49.406Z,21.67
2019-04-07T02:04:36.718Z,23.27
2019-04-07T02:06:17.882Z,21.83
2019-04-07T02:08:14.623Z,21.07
2019-04-07T02:10:08.704Z,23.07
2019-04-07T02:12:01.761Z,26.00
2019-04-07T02:13:54.735Z,19.80
2019-04-07T02:15:42.304Z,23.80
2019-04-07T02:17:42.738Z,21.87
2019-04-07T02:19:35.948Z,22.03
2019-04-07T02:21:20.707Z,24.60
2019-04-07T02:23:20.704Z,22.07
2019-04-07T02:25:11.958Z,21.23
2019-04-07T02:27:15.279Z,23.37
2019-04-07T02:28:57.227Z,22.50
2019-04-07T02:30:45.997Z,22.93
2019-04-07T02:32:52.469Z,22.13
2019-04-07T02:34:34.151Z,29.37
2019-04-07T02:36:34.054Z,24.43
2019-04-07T02:38:37.006Z,25.23
2019-04-07T02:40:17.899Z,24.90
2019-04-07T02:41:58.880Z,23.77
2019-04-07T02:43:51.620Z,23.93
2019-04-07T02:45:47.517Z,24.90
2019-04-07T02:47:47.263Z,21.80
2019-04-07T02:49:50.003Z,20.70
2019-04-07T02:51:51.252Z,22.70
2019-04-07T02:53:45.483Z,22.20
2019-04-07T02:55:29.997Z,22.80
2019-04-07T02:57:39.044Z,21.80
2019-04-07T02:59:21.510Z,24.23
2019-04-07T03:01:13.955Z,22.73
2019-04-07T03:03:06.245Z,19.63
2019-04-07T03:05:06.445Z,21.47
2019-04-07T03:06:52.879Z,19.77
2019-04-07T03:08:40.067Z,19.30
2019-04-07T03:10:40.517Z,23.60
2019-04-07T03:12:37.593Z,20.70
2019-04-07T03:14:22.487Z,23.30
2019-04-07T03:16:22.406Z,20.07
2019-04-07T03:18:29.289Z,25.47
2019-04-07T03:20:08.710Z,21.23
2019-04-07T03:21:55.505Z,20.57
2019-04-07T03:23:49.759Z,21.00
2019-04-07T03:25:38.657Z,22.93
2019-04-07T03:27:36.122Z,20.70
2019-04-07T03:29:29.285Z,22.30
2019-04-07T03:31:12.751Z,22.37
2019-04-07T03:33:07.939Z,26.23
2019-04-07T03:34:51.513Z,23.83
2019-04-07T03:37:02.909Z,23.73
2019-04-07T03:38:29.303Z,23.47
2019-04-07T03:40:24.322Z,21.73
2019-04-07T03:42:17.998Z,21.93
2019-04-07T03:44:05.976Z,20.37
2019-04-07T03:45:53.859Z,24.37
2019-04-07T03:47:36.153Z,23.33
2019-04-07T03:49:20.337Z,22.37
2019-04-07T03:51:04.428Z,21.30
2019-04-07T03:52:56.925Z,23.67
2019-04-07T03:54:43.357Z,19.87
2019-04-07T03:56:31.593Z,21.57
2019-04-07T03:58:36.346Z,19.77
2019-04-07T04:01:22.302Z,19.90
2019-04-07T04:03:06.566Z,18.57
2019-04-07T04:04:49.851Z,21.13
2019-04-07T04:06:53.443Z,17.87
2019-04-07T04:08:54.905Z,20.93
2019-04-07T04:10:41.329Z,21.67
2019-04-07T04:12:29.933Z,21.93
2019-04-07T04:14:19.430Z,20.73
2019-04-07T04:16:16.410Z,24.03
2019-04-07T04:17:51.324Z,21.60
2019-04-07T04:19:27.134Z,26.90
2019-04-07T04:21:02.286Z,21.93
2019-04-07T04:22:37.750Z,25.67
2019-04-07T04:24:12.706Z,21.13
2019-04-07T04:25:47.336Z,25.47
2019-04-07T04:27:21.997Z,20.63
2019-04-07T04:28:56.718Z,22.10
2019-04-07T04:30:32.345Z,20.23
2019-04-07T04:32:07.701Z,24.10
2019-04-07T04:33:42.471Z,21.13
2019-04-07T04:35:17.126Z,24.23
2019-04-07T04:36:52.961Z,21.83
2019-04-07T04:38:28.361Z,20.10
2019-04-07T04:40:03.083Z,21.93
2019-04-07T04:41:38.005Z,22.17
2019-04-07T04:43:13.750Z,22.23
2019-04-07T04:44:48.527Z,21.83
2019-04-07T04:46:23.894Z,21.50
2019-04-07T04:48:00.343Z,22.53
2019-04-07T04:49:35.292Z,22.93
2019-04-07T04:51:11.755Z,23.97
2019-04-07T04:52:46.908Z,20.17
2019-04-07T04:54:21.670Z,23.23
2019-04-07T04:55:56.331Z,24.10
2019-04-07T04:57:32.043Z,27.50
2019-04-07T04:59:08.216Z,23.17
2019-04-07T05:00:43.031Z,24.37
2019-04-07T05:02:17.686Z,26.43
2019-04-07T05:03:52.577Z,23.07
2019-04-07T05:05:28.056Z,20.23
2019-04-07T05:07:03.407Z,24.07
2019-04-07T05:08:39.260Z,25.43
2019-04-07T05:10:13.940Z,21.37
2019-04-07T05:11:48.632Z,24.07
2019-04-07T05:13:23.264Z,22.27
2019-04-07T05:14:58.094Z,24.67
2019-04-07T05:16:34.443Z,20.53
2019-04-07T05:18:10.701Z,25.50
2019-04-07T05:19:46.619Z,22.37
2019-04-07T05:21:21.243Z,21.37
2019-04-07T05:22:55.976Z,24.63
2019-04-07T05:24:31.267Z,21.53
2019-04-07T05:26:06.058Z,24.30
2019-04-07T05:27:41.654Z,23.37
2019-04-07T05:29:17.043Z,20.57
2019-04-07T05:30:53.355Z,23.63
2019-04-07T05:32:28.697Z,21.60
2019-04-07T05:34:03.795Z,25.00
2019-04-07T05:35:39.553Z,20.10
2019-04-07T05:37:14.188Z,24.07
2019-04-07T05:38:48.867Z,23.33
2019-04-07T05:40:23.553Z,20.53
2019-04-07T05:41:58.221Z,22.40
2019-04-07T05:43:32.912Z,23.27
2019-04-07T05:45:08.261Z,24.37
2019-04-07T05:46:43.470Z,20.07
2019-04-07T05:48:20.126Z,20.57
2019-04-07T05:49:57.371Z,22.83
2019-04-07T05:51:31.361Z,20.33
2019-04-07T05:53:12.136Z,20.07
2019-04-07T05:54:49.546Z,20.63
2019-04-07T05:56:25.876Z,19.90
2019-04-07T05:57:58.712Z,19.53
2019-04-07T05:59:33.506Z,21.13
2019-04-07T06:01:08.236Z,20.03
2019-04-07T06:02:44.117Z,18.93
2019-04-07T06:04:19.318Z,19.37
2019-04-07T06:05:54.890Z,21.33
2019-04-07T06:07:31.540Z,19.83
2019-04-07T06:09:08.017Z,22.10
2019-04-07T06:10:42.765Z,20.10
2019-04-07T06:12:17.489Z,20.00
2019-04-07T06:13:52.880Z,18.20
2019-04-07T06:15:27.619Z,21.70
2019-04-07T06:17:02.306Z,19.07
2019-04-07T06:18:36.968Z,21.23
2019-04-07T06:20:15.032Z,19.07
2019-04-07T06:21:48.951Z,18.27
2019-04-07T06:23:26.009Z,19.30
2019-04-07T06:25:02.686Z,19.07
2019-04-07T06:26:41.541Z,19.27
2019-04-07T06:28:16.334Z,17.93
2019-04-07T06:29:50.166Z,20.00
2019-04-07T06:31:26.300Z,18.13
2019-04-07T06:33:01.683Z,20.87
2019-04-07T06:34:39.748Z,18.87
2019-04-07T06:36:13.293Z,17.90
2019-04-07T06:37:48.016Z,19.30
2019-04-07T06:39:23.217Z,19.20
2019-04-07T06:41:00.896Z,19.17
2019-04-07T06:42:34.345Z,17.40
2019-04-07T06:44:13.410Z,19.53
2019-04-07T06:45:54.236Z,18.70
2019-04-07T06:47:42.339Z,17.60
2019-04-07T06:49:29.525Z,18.63
2019-04-07T06:51:11.636Z,18.40
2019-04-07T06:53:17.872Z,18.63
2019-04-07T06:55:13.565Z,18.57
2019-04-07T06:57:10.595Z,18.50
2019-04-07T06:59:16.667Z,18.47
2019-04-07T07:01:25.798Z,18.83
2019-04-07T07:03:33.529Z,17.87
2019-04-07T07:05:13.733Z,18.87
2019-04-07T07:06:58.911Z,18.13
2019-04-07T07:08:58.447Z,17.50
2019-04-07T07:10:50.561Z,20.20
2019-04-07T07:12:47.120Z,20.20
2019-04-07T07:14:40.546Z,17.83
2019-04-07T07:16:17.347Z,19.63
2019-04-07T07:18:11.349Z,24.47
2019-04-07T07:20:05.936Z,19.80
2019-04-07T07:22:00.311Z,17.77
2019-04-07T07:23:37.648Z,20.00
2019-04-07T07:25:13.226Z,18.23
2019-04-07T07:26:49.501Z,17.73
2019-04-07T07:28:24.186Z,18.70
2019-04-07T07:29:58.849Z,18.03
2019-04-07T07:31:33.563Z,19.47
2019-04-07T07:33:10.973Z,17.53
2019-04-07T07:34:44.624Z,18.53
2019-04-07T07:36:21.511Z,18.70
2019-04-07T07:37:58.121Z,18.43
2019-04-07T07:39:32.102Z,18.73
2019-04-07T07:41:06.804Z,18.83
2019-04-07T07:42:43.114Z,19.50
2019-04-07T07:44:17.789Z,20.10
2019-04-07T07:45:52.492Z,20.67
2019-04-07T07:47:27.492Z,19.37
2019-04-07T07:49:02.248Z,17.73
2019-04-07T07:50:38.717Z,18.27
2019-04-07T07:52:16.572Z,18.00
2019-04-07T07:53:49.626Z,18.10
2019-04-07T07:55:25.196Z,18.27
2019-04-07T07:57:00.141Z,19.00
2019-04-07T07:58:35.525Z,19.70
2019-04-07T08:00:10.398Z,18.93
2019-04-07T08:01:47.069Z,18.40
2019-04-07T08:03:22.911Z,19.07
2019-04-07T08:04:59.180Z,19.83
2019-04-07T08:06:38.497Z,19.70
2019-04-07T08:08:11.564Z,19.83
2019-04-07T08:09:48.019Z,17.80
2019-04-07T08:11:22.908Z,19.20
2019-04-07T08:12:57.550Z,21.10
2019-04-07T08:14:33.190Z,18.80
2019-04-07T08:16:08.656Z,19.57
2019-04-07T08:17:43.376Z,19.03
2019-04-07T08:19:18.987Z,19.13
2019-04-07T08:20:53.760Z,18.63
2019-04-07T08:22:33.934Z,19.70
2019-04-07T08:24:05.203Z,19.27
2019-04-07T08:25:40.071Z,19.17
2019-04-07T08:27:14.983Z,18.47
2019-04-07T08:28:50.291Z,18.30
2019-04-07T08:30:26.056Z,19.93
2019-04-07T08:32:00.823Z,20.97
2019-04-07T08:33:35.579Z,19.20
2019-04-07T08:35:10.982Z,18.77
2019-04-07T08:36:47.190Z,19.80
2019-04-07T08:38:25.398Z,18.83
2019-04-07T08:39:59.399Z,18.23
2019-04-07T08:41:34.082Z,18.13
2019-04-07T08:43:08.782Z,18.67
2019-04-07T08:44:44.098Z,18.20
2019-04-07T08:46:18.957Z,18.33
2019-04-07T08:47:53.768Z,18.83
2019-04-07T08:49:31.101Z,19.33
2019-04-07T08:51:05.861Z,18.50
2019-04-07T08:52:42.675Z,18.97
2019-04-07T08:54:18.455Z,19.37
2019-04-07T08:55:54.707Z,17.87
2019-04-07T08:57:31.145Z,18.03
2019-04-07T08:59:09.483Z,18.20
2019-04-07T09:00:48.218Z,19.90
2019-04-07T09:02:26.896Z,18.97
2019-04-07T09:04:00.021Z,20.43
2019-04-07T09:05:35.418Z,24.50
2019-04-07T09:07:10.349Z,21.33
2019-04-07T09:08:45.067Z,21.47
2019-04-07T09:10:27.878Z,22.17
2019-04-07T09:12:02.568Z,20.83
2019-04-07T09:13:37.424Z,21.77
2019-04-07T09:15:15.513Z,24.20
2019-04-07T09:17:04.562Z,21.43
2019-04-07T09:19:04.916Z,23.97
2019-04-07T09:20:57.630Z,22.10
2019-04-07T09:22:56.657Z,24.67
2019-04-07T09:24:41.853Z,26.00
2019-04-07T09:26:24.205Z,22.90
2019-04-07T09:28:08.733Z,23.17
2019-04-07T09:30:10.054Z,24.23
2019-04-07T09:32:02.517Z,24.43
2019-04-07T09:33:58.971Z,26.03
2019-04-07T09:35:59.367Z,27.27
2019-04-07T09:37:56.013Z,24.93
2019-04-07T09:39:56.913Z,25.13
2019-04-07T09:41:45.125Z,24.10
2019-04-07T09:43:41.708Z,25.87
2019-04-07T09:45:39.475Z,23.03
2019-04-07T09:47:30.366Z,25.00
2019-04-07T09:49:23.840Z,23.03
2019-04-07T09:51:22.761Z,25.93
2019-04-07T09:53:19.691Z,23.77
2019-04-07T09:55:13.013Z,23.63
2019-04-07T09:57:16.800Z,22.73
2019-04-07T09:59:19.181Z,23.43
2019-04-07T10:01:09.097Z,24.47
2019-04-07T10:03:19.156Z,22.27
2019-04-07T10:05:12.048Z,22.40
2019-04-07T10:07:04.755Z,24.87
2019-04-07T10:08:55.480Z,23.77
2019-04-07T10:10:48.305Z,19.87
2019-04-07T10:12:45.889Z,20.23
2019-04-07T10:14:39.806Z,22.17
2019-04-07T10:16:35.143Z,20.47
2019-04-07T10:18:20.493Z,19.40
2019-04-07T10:20:07.470Z,20.10
2019-04-07T10:21:51.119Z,19.83
2019-04-07T10:23:37.570Z,22.60
2019-04-07T10:25:31.260Z,20.23
2019-04-07T10:27:18.702Z,17.37
2019-04-07T10:29:00.645Z,20.07
2019-04-07T10:30:49.977Z,16.90
2019-04-07T10:32:52.339Z,16.03
2019-04-07T10:34:34.886Z,17.50
2019-04-07T10:36:22.907Z,19.03
2019-04-07T10:38:07.547Z,19.13
2019-04-07T10:40:01.715Z,21.03
2019-04-07T10:41:50.814Z,19.70
2019-04-07T10:43:45.263Z,20.43
2019-04-07T10:45:45.909Z,17.93
2019-04-07T10:47:40.138Z,19.97
2019-04-07T10:49:24.404Z,18.50
2019-04-07T10:51:09.023Z,18.90
2019-04-07T10:53:01.403Z,18.97
2019-04-07T10:54:41.526Z,20.83
2019-04-07T10:56:35.922Z,20.83
2019-04-07T10:58:27.919Z,19.53
2019-04-07T11:00:21.346Z,19.07
2019-04-07T11:02:16.813Z,19.47
2019-04-07T11:04:02.434Z,19.10
2019-04-07T11:05:50.479Z,20.17
2019-04-07T11:07:54.658Z,19.10
2019-04-07T11:09:38.889Z,16.77
2019-04-07T11:11:24.685Z,16.63
2019-04-07T11:13:18.760Z,17.77
2019-04-07T11:15:21.090Z,15.33
2019-04-07T11:17:12.512Z,15.67
2019-04-07T11:19:18.510Z,18.93
2019-04-07T11:21:05.623Z,18.00
2019-04-07T11:23:15.550Z,18.00
2019-04-07T11:24:59.971Z,17.67
2019-04-07T11:26:53.874Z,21.27
2019-04-07T11:28:34.826Z,18.87
2019-04-07T11:30:16.950Z,18.47
2019-04-07T11:32:17.642Z,19.30
2019-04-07T11:34:15.252Z,15.47
2019-04-07T11:36:09.396Z,17.70
2019-04-07T11:37:54.061Z,17.10
2019-04-07T11:39:57.716Z,16.80
2019-04-07T11:41:55.710Z,17.17
2019-04-07T11:43:53.315Z,15.97
2019-04-07T11:45:56.304Z,19.50
2019-04-07T11:47:29.814Z,15.33
2019-04-07T11:49:13.386Z,16.33
2019-04-07T11:51:07.977Z,18.47
2019-04-07T11:53:13.619Z,17.07
2019-04-07T11:54:54.024Z,15.43
2019-04-07T11:57:06.585Z,17.97
2019-04-07T11:59:08.512Z,16.77
2019-04-07T12:01:14.399Z,19.90
2019-04-07T12:03:09.547Z,18.60
2019-04-07T12:04:57.866Z,19.80
2019-04-07T12:06:40.386Z,17.17
2019-04-07T12:08:36.240Z,16.97
2019-04-07T12:10:34.437Z,18.10
2019-04-07T12:12:18.315Z,14.80
2019-04-07T12:14:16.341Z,15.80
2019-04-07T12:16:08.004Z,17.47
2019-04-07T12:18:18.900Z,23.70
2019-04-07T12:20:04.318Z,18.37
2019-04-07T12:21:50.231Z,15.67
2019-04-07T12:23:38.229Z,16.73
2019-04-07T12:25:33.497Z,19.90
2019-04-07T12:27:25.821Z,15.20
2019-04-07T12:29:18.943Z,14.33
2019-04-07T12:31:10.300Z,21.40
2019-04-07T12:33:05.062Z,16.63
2019-04-07T12:35:05.224Z,16.33
2019-04-07T12:37:02.436Z,15.20
2019-04-07T12:38:57.448Z,18.37
2019-04-07T12:40:52.919Z,17.13
2019-04-07T12:42:54.569Z,18.77
2019-04-07T12:44:35.359Z,18.77
2019-04-07T12:46:36.829Z,17.27
2019-04-07T12:48:34.844Z,17.73
2019-04-07T12:50:24.177Z,20.37
2019-04-07T12:52:17.317Z,22.10
2019-04-07T12:54:17.911Z,19.20
2019-04-07T12:56:08.107Z,17.70
2019-04-07T12:57:58.225Z,17.13
2019-04-07T12:59:51.902Z,18.20
2019-04-07T13:01:47.096Z,17.83
2019-04-07T13:03:26.132Z,15.63
2019-04-07T13:05:11.014Z,16.60
2019-04-07T13:07:19.516Z,16.17
2019-04-07T13:09:21.527Z,16.27
2019-04-07T13:11:07.444Z,16.30
2019-04-07T13:13:02.674Z,13.90
2019-04-07T13:14:53.653Z,15.00
2019-04-07T13:16:45.918Z,15.57
2019-04-07T13:18:31.420Z,15.03
2019-04-07T13:20:24.333Z,15.77
2019-04-07T13:22:15.071Z,13.37
2019-04-07T13:24:13.293Z,15.47
2019-04-07T13:25:57.902Z,16.53
2019-04-07T13:27:54.325Z,13.37
2019-04-07T13:29:41.265Z,14.30
2019-04-07T13:31:21.306Z,13.17
2019-04-07T13:33:03.528Z,13.10
2019-04-07T13:34:57.926Z,14.60
2019-04-07T13:36:54.405Z,18.13
2019-04-07T13:38:46.936Z,13.23
2019-04-07T13:40:33.730Z,17.07
2019-04-07T13:42:14.250Z,14.70
2019-04-07T13:43:57.326Z,15.03
2019-04-07T13:45:50.581Z,13.97
2019-04-07T13:47:44.722Z,15.93
2019-04-07T13:49:38.109Z,13.03
2019-04-07T13:51:44.741Z,14.60
2019-04-07T13:53:39.367Z,13.13
2019-04-07T13:55:34.712Z,16.30
2019-04-07T13:57:32.054Z,14.03
2019-04-07T13:59:34.918Z,13.93
2019-04-07T14:01:22.129Z,12.23
2019-04-07T14:03:04.813Z,12.37
2019-04-07T14:04:56.154Z,14.73
2019-04-07T14:06:49.957Z,11.67
2019-04-07T14:08:41.601Z,12.63
2019-04-07T14:10:23.513Z,12.27
2019-04-07T14:12:22.800Z,13.53
2019-04-07T14:14:17.915Z,14.77
2019-04-07T14:16:21.224Z,11.17
2019-04-07T14:18:15.507Z,10.73
2019-04-07T14:19:57.737Z,12.63
2019-04-07T14:21:52.172Z,12.97
2019-04-07T14:23:44.724Z,10.80
2019-04-07T14:25:41.887Z,12.67
2019-04-07T14:27:22.071Z,11.20
2019-04-07T14:29:07.620Z,12.60
2019-04-07T14:31:01.361Z,11.83
2019-04-07T14:33:01.161Z,12.53
2019-04-07T14:34:53.658Z,14.83
2019-04-07T14:36:53.548Z,15.77
2019-04-07T14:38:54.244Z,14.83
2019-04-07T14:41:03.504Z,12.33
2019-04-07T14:42:47.566Z,12.57
2019-04-07T14:44:40.193Z,10.97
2019-04-07T14:46:26.295Z,10.83
2019-04-07T14:48:20.427Z,13.17
2019-04-07T14:50:17.078Z,12.30
2019-04-07T14:51:59.505Z,12.77
2019-04-07T14:53:55.137Z,14.83
2019-04-07T14:55:49.563Z,11.00
2019-04-07T14:57:41.631Z,11.50
2019-04-07T14:59:36.062Z,12.63
2019-04-07T15:01:22.601Z,11.23
2019-04-07T15:02:57.624Z,11.70
2019-04-07T15:04:38.730Z,12.67
2019-04-07T15:06:14.363Z,14.80
2019-04-07T15:08:06.797Z,12.30
2019-04-07T15:09:52.420Z,15.07
2019-04-07T15:11:49.100Z,11.30
2019-04-07T15:13:28.225Z,10.33
2019-04-07T15:15:05.931Z,10.27
2019-04-07T15:16:39.305Z,11.73
2019-04-07T15:18:14.100Z,11.70
2019-04-07T15:19:48.734Z,10.10
2019-04-07T15:21:23.963Z,8.83
2019-04-07T15:23:00.241Z,9.30
2019-04-07T15:24:35.793Z,9.93
2019-04-07T15:26:14.498Z,10.20
2019-04-07T15:27:48.111Z,10.00
2019-04-07T15:29:24.294Z,11.60
2019-04-07T15:30:59.015Z,9.70
2019-04-07T15:32:35.652Z,13.47
2019-04-07T15:34:11.941Z,10.30
2019-04-07T15:35:49.438Z,16.17
2019-04-07T15:37:24.683Z,11.90
2019-04-07T15:38:59.553Z,11.07
2019-04-07T15:40:36.251Z,12.30
2019-04-07T15:42:11.549Z,13.47
2019-04-07T15:43:47.251Z,9.23
2019-04-07T15:45:21.909Z,13.97
2019-04-07T15:46:57.458Z,8.43
2019-04-07T15:48:32.859Z,10.50
2019-04-07T15:50:08.524Z,11.83
2019-04-07T15:51:43.572Z,24.20
2019-04-07T15:53:23.213Z,15.43
2019-04-07T15:54:58.463Z,12.77
2019-04-07T15:56:33.657Z,11.13
2019-04-07T15:58:08.556Z,9.87
2019-04-07T15:59:43.405Z,10.47
2019-04-07T16:01:18.193Z,10.33
2019-04-07T16:02:53.626Z,9.77
2019-04-07T16:04:29.829Z,12.53
2019-04-07T16:06:05.805Z,15.30
2019-04-07T16:07:40.745Z,9.83
2019-04-07T16:09:29.840Z,11.70
2019-04-07T16:10:53.689Z,11.10
2019-04-07T16:12:29.792Z,10.13
2019-04-07T16:14:08.703Z,11.43
2019-04-07T16:15:44.637Z,12.63
2019-04-07T16:17:19.092Z,10.00
2019-04-07T16:18:53.704Z,11.00
2019-04-07T16:20:32.478Z,10.23
2019-04-07T16:22:06.032Z,9.27
2019-04-07T16:23:41.656Z,13.00
2019-04-07T16:25:17.090Z,12.53
2019-04-07T16:26:52.600Z,12.47
2019-04-07T16:28:28.187Z,13.53
2019-04-07T16:30:03.022Z,11.30
2019-04-07T16:31:39.329Z,13.50
2019-04-07T16:33:14.108Z,12.47
2019-04-07T16:34:49.705Z,13.30
2019-04-07T16:36:26.564Z,10.47
2019-04-07T16:38:01.818Z,9.70
2019-04-07T16:39:38.833Z,9.97
2019-04-07T16:41:14.778Z,10.20
2019-04-07T16:43:04.420Z,9.97
2019-04-07T16:44:26.636Z,11.10
2019-04-07T16:46:01.769Z,9.50
2019-04-07T16:47:37.119Z,11.07
2019-04-07T16:49:13.724Z,8.67
2019-04-07T16:50:54.753Z,11.20
2019-04-07T16:52:31.103Z,11.63
2019-04-07T16:54:03.023Z,9.30
2019-04-07T16:55:40.298Z,9.53
2019-04-07T16:57:16.246Z,10.33
2019-04-07T16:58:50.984Z,9.10
2019-04-07T17:00:25.918Z,10.30
2019-04-07T17:02:00.714Z,9.57
2019-04-07T17:03:35.494Z,9.50
2019-04-07T17:05:10.316Z,9.63
2019-04-07T17:06:44.999Z,10.50
2019-04-07T17:08:22.521Z,12.60
2019-04-07T17:09:57.459Z,10.20
2019-04-07T17:11:32.511Z,9.83
2019-04-07T17:13:17.880Z,12.53
2019-04-07T17:14:43.612Z,12.17
2019-04-07T17:16:22.545Z,14.17
2019-04-07T17:17:55.955Z,15.27
2019-04-07T17:19:30.735Z,14.33
2019-04-07T17:21:09.464Z,11.33
2019-04-07T17:22:47.648Z,10.50
2019-04-07T17:24:25.042Z,13.03
2019-04-07T17:25:57.705Z,11.43
2019-04-07T17:27:32.694Z,11.27
2019-04-07T17:29:08.847Z,9.53
2019-04-07T17:30:44.476Z,10.07
2019-04-07T17:32:19.990Z,9.00
2019-04-07T17:33:55.130Z,11.20
2019-04-07T17:35:30.691Z,9.93
2019-04-07T17:37:05.533Z,10.07
2019-04-07T17:38:58.456Z,11.80
2019-04-07T17:40:38.235Z,10.40
2019-04-07T17:42:14.407Z,9.67
2019-04-07T17:44:05.677Z,9.03
2019-04-07T17:45:54.614Z,8.83
2019-04-07T17:47:39.371Z,11.63
2019-04-07T17:49:26.318Z,9.67
2019-04-07T17:51:13.891Z,9.47
2019-04-07T17:53:14.964Z,9.07
2019-04-07T17:55:00.180Z,9.27
2019-04-07T17:56:43.167Z,11.07
2019-04-07T17:58:27.410Z,12.93
2019-04-07T18:00:20.268Z,11.20
2019-04-07T18:02:08.629Z,10.00
2019-04-07T18:04:08.246Z,8.80
2019-04-07T18:06:05.782Z,8.60
2019-04-07T18:08:01.831Z,9.13
2019-04-07T18:09:53.302Z,11.23
2019-04-07T18:11:41.976Z,11.47
2019-04-07T18:13:44.987Z,10.17
2019-04-07T18:15:31.512Z,10.47
2019-04-07T18:17:26.843Z,12.00
2019-04-07T18:19:16.031Z,10.60
2019-04-07T18:21:15.439Z,12.20
2019-04-07T18:23:07.826Z,8.90
2019-04-07T18:24:51.112Z,11.23
2019-04-07T18:26:41.956Z,10.70
2019-04-07T18:28:54.084Z,11.03
2019-04-07T18:30:45.394Z,12.67
2019-04-07T18:32:48.048Z,11.30
2019-04-07T18:34:48.172Z,9.53
2019-04-07T18:36:44.658Z,9.33
2019-04-07T18:38:28.577Z,12.83
2019-04-07T18:40:37.627Z,10.80
2019-04-07T18:42:22.070Z,9.70
2019-04-07T18:44:21.651Z,9.93
2019-04-07T18:46:16.941Z,12.17
2019-04-07T18:48:11.330Z,12.57
2019-04-07T18:50:07.610Z,10.63
2019-04-07T18:51:59.240Z,11.73
2019-04-07T18:53:49.256Z,12.43
2019-04-07T18:55:32.146Z,9.83
2019-04-07T18:57:21.625Z,9.93
2019-04-07T18:59:11.708Z,10.00
2019-04-07T19:01:17.017Z,11.20
2019-04-07T19:03:29.661Z,10.40
2019-04-07T19:05:14.422Z,10.77
2019-04-07T19:07:15.107Z,9.43
2019-04-07T19:09:14.250Z,10.87
2019-04-07T19:11:10.692Z,9.60
2019-04-07T19:13:06.463Z,10.03
2019-04-07T19:15:05.621Z,10.03
2019-04-07T19:16:54.685Z,9.97
2019-04-07T19:18:47.138Z,9.67
2019-04-07T19:20:40.364Z,9.60
2019-04-07T19:22:32.523Z,9.53
2019-04-07T19:24:33.520Z,10.87
2019-04-07T19:26:24.695Z,11.07
2019-04-07T19:28:17.758Z,9.70
2019-04-07T19:30:13.224Z,12.07
2019-04-07T19:31:59.699Z,13.07
2019-04-07T19:34:00.939Z,10.43
2019-04-07T19:35:44.929Z,9.13
2019-04-07T19:37:34.810Z,11.40
2019-04-07T19:39:39.254Z,9.63
2019-04-07T19:41:43.676Z,8.83
2019-04-07T19:43:29.579Z,8.43
2019-04-07T19:45:26.918Z,9.93
2019-04-07T19:47:14.993Z,9.60
2019-04-07T19:49:07.879Z,10.47
2019-04-07T19:51:01.626Z,8.17
2019-04-07T19:52:54.178Z,8.10
2019-04-07T19:55:03.698Z,9.00
2019-04-07T19:56:50.032Z,11.03
2019-04-07T19:58:51.361Z,8.60
2019-04-07T20:00:44.610Z,8.70
2019-04-07T20:02:39.121Z,10.50
2019-04-07T20:04:32.766Z,9.87
2019-04-07T20:06:24.824Z,9.30
2019-04-07T20:08:21.461Z,9.37
2019-04-07T20:10:20.663Z,8.67
2019-04-07T20:12:16.315Z,8.73
2019-04-07T20:14:10.344Z,9.27
2019-04-07T20:16:05.218Z,11.33
2019-04-07T20:18:01.909Z,9.07
2019-04-07T20:19:58.330Z,11.53
2019-04-07T20:21:42.781Z,10.67
2019-04-07T20:23:34.458Z,12.23
2019-04-07T20:25:20.394Z,9.93
2019-04-07T20:27:13.976Z,9.73
2019-04-07T20:29:09.394Z,11.67
2019-04-07T20:31:10.465Z,9.67
2019-04-07T20:33:16.616Z,10.37
2019-04-07T20:35:14.251Z,11.20
2019-04-07T20:37:12.974Z,9.53
2019-04-07T20:39:02.238Z,9.00
2019-04-07T20:40:56.287Z,12.37
2019-04-07T20:42:40.096Z,9.50
2019-04-07T20:44:34.417Z,9.90
2019-04-07T20:46:27.414Z,10.47
2019-04-07T20:48:13.642Z,9.77
2019-04-07T20:49:58.884Z,8.97
2019-04-07T20:51:57.096Z,10.23
2019-04-07T20:53:49.408Z,11.80
2019-04-07T20:55:52.382Z,11.03
2019-04-07T20:57:43.308Z,10.67
2019-04-07T20:59:31.434Z,10.47
2019-04-07T21:01:26.432Z,9.83
2019-04-07T21:03:38.460Z,10.27
2019-04-07T21:05:37.821Z,11.87
2019-04-07T21:07:28.912Z,12.20
2019-04-07T21:09:21.861Z,10.23
2019-04-07T21:11:15.167Z,11.07
2019-04-07T21:13:02.347Z,12.90
2019-04-07T21:14:52.001Z,10.00
2019-04-07T21:16:48.429Z,10.07
2019-04-07T21:18:37.105Z,13.07
2019-04-07T21:20:30.838Z,9.73
2019-04-07T21:22:14.177Z,10.80
2019-04-07T21:24:07.812Z,14.13
2019-04-07T21:25:52.067Z,11.80
2019-04-07T21:27:44.059Z,12.63
2019-04-07T21:29:24.656Z,12.87
2019-04-07T21:31:07.987Z,12.27
2019-04-07T21:33:00.618Z,11.60
2019-04-07T21:35:04.368Z,13.50
2019-04-07T21:36:51.222Z,12.07
2019-04-07T21:38:56.951Z,11.37
2019-04-07T21:40:45.877Z,11.80
2019-04-07T21:42:42.603Z,11.97
2019-04-07T21:44:35.812Z,11.30
2019-04-07T21:46:32.677Z,14.03
2019-04-07T21:48:30.343Z,14.03
2019-04-07T21:50:24.584Z,13.37
2019-04-07T21:52:21.735Z,12.67
2019-04-07T21:54:05.880Z,11.27
2019-04-07T21:55:59.729Z,11.80
2019-04-07T21:57:57.026Z,11.47
2019-04-07T21:59:38.057Z,12.70
2019-04-07T22:01:18.638Z,9.90
2019-04-07T22:03:23.508Z,12.53
2019-04-07T22:05:27.271Z,10.10
2019-04-07T22:07:19.533Z,10.87
2019-04-07T22:09:06.850Z,10.57
2019-04-07T22:10:41.662Z,10.60
2019-04-07T22:12:16.802Z,10.07
2019-04-07T22:13:53.374Z,10.73
2019-04-07T22:15:35.081Z,10.97
2019-04-07T22:17:05.352Z,12.13
2019-04-07T22:18:41.800Z,10.67
2019-04-07T22:20:18.824Z,9.73
2019-04-07T22:21:55.796Z,10.27
2019-04-07T22:23:30.694Z,11.63
2019-04-07T22:25:08.242Z,10.57
2019-04-07T22:26:47.058Z,10.57
2019-04-07T22:28:18.989Z,10.17
2019-04-07T22:29:53.715Z,11.80
2019-04-07T22:31:33.719Z,10.77
2019-04-07T22:33:09.194Z,10.60
2019-04-07T22:34:44.075Z,9.30
2019-04-07T22:36:18.889Z,10.57
2019-04-07T22:37:54.655Z,11.03
2019-04-07T22:39:30.754Z,10.87
2019-04-07T22:41:08.060Z,10.10